sensor_id;sensor_type;location;lat;lon;timestamp;temperature;humidity
41294;DHT22;27037;52.010;4.446;2023-11-18T00:00:29;7.60;99.90
41294;DHT22;27037;52.010;4.446;2023-11-18T00:02:54;7.60;99.90
41294;DHT22;27037;52.010;4.446;2023-11-18T00:05:20;7.60;99.90
41294;DHT22;27037;52.010;4.446;2023-11-18T00:07:46;7.60;99.90
41294;DHT22;27037;52.010;4.446;2023-11-18T00:10:12;7.50;99.90
41294;DHT22;27037;52.010;4.446;2023-11-18T00:12:38;7.50;99.90
41294;DHT22;27037;52.010;4.446;2023-11-18T00:15:07;7.50;99.90
41294;DHT22;27037;52.010;4.446;2023-11-18T00:17:37;7.50;99.90
41294;DHT22;27037;52.010;4.446;2023-11-18T00:20:02;7.50;99.90
41294;DHT22;27037;52.010;4.446;2023-11-18T00:22:34;7.50;99.90
41294;DHT22;27037;52.010;4.446;2023-11-18T00:24:59;7.40;99.90
41294;DHT22;27037;52.010;4.446;2023-11-18T00:27:25;7.40;99.90
41294;DHT22;27037;52.010;4.446;2023-11-18T00:29:50;7.40;99.90
41294;DHT22;27037;52.010;4.446;2023-11-18T00:32:18;7.40;99.90
41294;DHT22;27037;52.010;4.446;2023-11-18T00:34:44;7.30;99.90
41294;DHT22;27037;52.010;4.446;2023-11-18T00:37:10;7.30;99.90
41294;DHT22;27037;52.010;4.446;2023-11-18T00:39:35;7.30;99.90
41294;DHT22;27037;52.010;4.446;2023-11-18T00:42:02;7.30;99.90
41294;DHT22;27037;52.010;4.446;2023-11-18T00:44:28;7.30;99.90
41294;DHT22;27037;52.010;4.446;2023-11-18T00:46:53;7.30;99.90
41294;DHT22;27037;52.010;4.446;2023-11-18T00:49:19;7.30;99.90
41294;DHT22;27037;52.010;4.446;2023-11-18T00:51:45;7.20;99.90
41294;DHT22;27037;52.010;4.446;2023-11-18T00:54:10;7.30;99.90
41294;DHT22;27037;52.010;4.446;2023-11-18T00:56:37;7.30;99.90
41294;DHT22;27037;52.010;4.446;2023-11-18T00:59:03;7.30;99.90
41294;DHT22;27037;52.010;4.446;2023-11-18T01:01:29;7.30;99.90
41294;DHT22;27037;52.010;4.446;2023-11-18T01:03:55;7.30;99.90
41294;DHT22;27037;52.010;4.446;2023-11-18T01:06:27;7.30;99.90
41294;DHT22;27037;52.010;4.446;2023-11-18T01:08:53;7.30;99.90
41294;DHT22;27037;52.010;4.446;2023-11-18T01:11:19;7.30;99.90
41294;DHT22;27037;52.010;4.446;2023-11-18T01:13:49;7.40;99.90
41294;DHT22;27037;52.010;4.446;2023-11-18T01:16:15;7.30;99.90
41294;DHT22;27037;52.010;4.446;2023-11-18T01:18:42;7.30;99.90
41294;DHT22;27037;52.010;4.446;2023-11-18T01:21:08;7.40;99.90
41294;DHT22;27037;52.010;4.446;2023-11-18T01:23:37;7.40;99.90
41294;DHT22;27037;52.010;4.446;2023-11-18T01:26:06;7.40;99.90
41294;DHT22;27037;52.010;4.446;2023-11-18T01:28:34;7.40;99.90
41294;DHT22;27037;52.010;4.446;2023-11-18T01:31:07;7.40;99.90
41294;DHT22;27037;52.010;4.446;2023-11-18T01:33:39;7.50;99.90
41294;DHT22;27037;52.010;4.446;2023-11-18T01:36:10;7.40;99.90
41294;DHT22;27037;52.010;4.446;2023-11-18T01:38:36;7.40;99.90
41294;DHT22;27037;52.010;4.446;2023-11-18T01:41:06;7.50;99.90
41294;DHT22;27037;52.010;4.446;2023-11-18T01:43:32;7.50;99.90
41294;DHT22;27037;52.010;4.446;2023-11-18T01:45:59;7.50;99.90
41294;DHT22;27037;52.010;4.446;2023-11-18T01:48:28;7.50;99.90
41294;DHT22;27037;52.010;4.446;2023-11-18T01:50:58;7.50;99.90
41294;DHT22;27037;52.010;4.446;2023-11-18T01:53:24;7.50;99.90
41294;DHT22;27037;52.010;4.446;2023-11-18T01:55:50;7.50;99.90
41294;DHT22;27037;52.010;4.446;2023-11-18T01:58:16;7.50;99.90
41294;DHT22;27037;52.010;4.446;2023-11-18T02:00:45;7.50;99.90
41294;DHT22;27037;52.010;4.446;2023-11-18T02:03:14;7.50;99.90
41294;DHT22;27037;52.010;4.446;2023-11-18T02:05:40;7.50;99.90
41294;DHT22;27037;52.010;4.446;2023-11-18T02:08:08;7.50;99.90
41294;DHT22;27037;52.010;4.446;2023-11-18T02:10:46;7.50;99.90
41294;DHT22;27037;52.010;4.446;2023-11-18T02:13:29;7.50;99.90
41294;DHT22;27037;52.010;4.446;2023-11-18T02:15:57;7.50;99.90
41294;DHT22;27037;52.010;4.446;2023-11-18T02:18:27;7.60;99.90
41294;DHT22;27037;52.010;4.446;2023-11-18T02:20:56;7.50;99.90
41294;DHT22;27037;52.010;4.446;2023-11-18T02:23:28;7.60;99.90
41294;DHT22;27037;52.010;4.446;2023-11-18T02:25:54;7.50;99.90
41294;DHT22;27037;52.010;4.446;2023-11-18T02:28:21;7.50;99.90
41294;DHT22;27037;52.010;4.446;2023-11-18T02:30:47;7.50;99.90
41294;DHT22;27037;52.010;4.446;2023-11-18T02:33:36;7.60;99.90
41294;DHT22;27037;52.010;4.446;2023-11-18T02:36:22;7.50;99.90
41294;DHT22;27037;52.010;4.446;2023-11-18T02:38:50;7.50;99.90
41294;DHT22;27037;52.010;4.446;2023-11-18T02:41:20;7.50;99.90
41294;DHT22;27037;52.010;4.446;2023-11-18T02:43:47;7.50;99.90
41294;DHT22;27037;52.010;4.446;2023-11-18T02:46:15;7.60;99.90
41294;DHT22;27037;52.010;4.446;2023-11-18T02:48:41;7.50;99.90
41294;DHT22;27037;52.010;4.446;2023-11-18T02:51:07;7.50;99.90
41294;DHT22;27037;52.010;4.446;2023-11-18T02:53:34;7.60;99.90
41294;DHT22;27037;52.010;4.446;2023-11-18T02:56:00;7.60;99.90
41294;DHT22;27037;52.010;4.446;2023-11-18T02:58:29;7.60;99.90
41294;DHT22;27037;52.010;4.446;2023-11-18T03:00:55;7.60;99.90
41294;DHT22;27037;52.010;4.446;2023-11-18T03:03:21;7.50;99.90
41294;DHT22;27037;52.010;4.446;2023-11-18T03:05:46;7.60;99.90
41294;DHT22;27037;52.010;4.446;2023-11-18T03:08:15;7.60;99.90
41294;DHT22;27037;52.010;4.446;2023-11-18T03:10:41;7.60;99.90
41294;DHT22;27037;52.010;4.446;2023-11-18T03:13:10;7.60;99.90
41294;DHT22;27037;52.010;4.446;2023-11-18T03:15:35;7.60;99.90
41294;DHT22;27037;52.010;4.446;2023-11-18T03:18:01;7.60;99.90
41294;DHT22;27037;52.010;4.446;2023-11-18T03:20:27;7.60;99.90
41294;DHT22;27037;52.010;4.446;2023-11-18T03:22:54;7.60;99.90
41294;DHT22;27037;52.010;4.446;2023-11-18T03:25:20;7.60;99.90
41294;DHT22;27037;52.010;4.446;2023-11-18T03:27:47;7.60;99.90
41294;DHT22;27037;52.010;4.446;2023-11-18T03:30:13;7.60;99.90
41294;DHT22;27037;52.010;4.446;2023-11-18T03:32:39;7.60;99.90
41294;DHT22;27037;52.010;4.446;2023-11-18T03:35:08;7.60;99.90
41294;DHT22;27037;52.010;4.446;2023-11-18T03:37:39;7.60;99.90
41294;DHT22;27037;52.010;4.446;2023-11-18T03:40:12;7.60;99.90
41294;DHT22;27037;52.010;4.446;2023-11-18T03:42:41;7.60;99.90
41294;DHT22;27037;52.010;4.446;2023-11-18T03:45:07;7.60;99.90
41294;DHT22;27037;52.010;4.446;2023-11-18T03:47:34;7.60;99.90
41294;DHT22;27037;52.010;4.446;2023-11-18T03:50:01;7.60;99.90
41294;DHT22;27037;52.010;4.446;2023-11-18T03:52:26;7.60;99.90
41294;DHT22;27037;52.010;4.446;2023-11-18T03:54:53;7.60;99.90
41294;DHT22;27037;52.010;4.446;2023-11-18T03:57:19;7.60;99.90
41294;DHT22;27037;52.010;4.446;2023-11-18T03:59:44;7.60;99.90
41294;DHT22;27037;52.010;4.446;2023-11-18T04:02:10;7.60;99.90
41294;DHT22;27037;52.010;4.446;2023-11-18T04:04:37;7.60;99.90
41294;DHT22;27037;52.010;4.446;2023-11-18T04:07:03;7.60;99.90
41294;DHT22;27037;52.010;4.446;2023-11-18T04:09:29;7.60;99.90
41294;DHT22;27037;52.010;4.446;2023-11-18T04:11:55;7.60;99.90
41294;DHT22;27037;52.010;4.446;2023-11-18T04:14:21;7.60;99.90
41294;DHT22;27037;52.010;4.446;2023-11-18T04:16:47;7.60;99.90
41294;DHT22;27037;52.010;4.446;2023-11-18T04:19:12;7.60;99.90
41294;DHT22;27037;52.010;4.446;2023-11-18T04:21:38;7.60;99.90
41294;DHT22;27037;52.010;4.446;2023-11-18T04:24:05;7.60;99.90
41294;DHT22;27037;52.010;4.446;2023-11-18T04:26:31;7.60;99.90
41294;DHT22;27037;52.010;4.446;2023-11-18T04:28:57;7.60;99.90
41294;DHT22;27037;52.010;4.446;2023-11-18T04:31:24;7.60;99.90
41294;DHT22;27037;52.010;4.446;2023-11-18T04:33:49;7.60;99.90
41294;DHT22;27037;52.010;4.446;2023-11-18T04:36:15;7.60;99.90
41294;DHT22;27037;52.010;4.446;2023-11-18T04:38:42;7.60;99.90
41294;DHT22;27037;52.010;4.446;2023-11-18T04:41:08;7.70;99.90
41294;DHT22;27037;52.010;4.446;2023-11-18T04:43:33;7.60;99.90
41294;DHT22;27037;52.010;4.446;2023-11-18T04:45:59;7.60;99.90
41294;DHT22;27037;52.010;4.446;2023-11-18T04:48:25;7.60;99.90
41294;DHT22;27037;52.010;4.446;2023-11-18T04:50:50;7.70;99.90
41294;DHT22;27037;52.010;4.446;2023-11-18T04:53:16;7.70;99.90
41294;DHT22;27037;52.010;4.446;2023-11-18T04:55:42;7.70;99.90
41294;DHT22;27037;52.010;4.446;2023-11-18T04:58:08;7.70;99.90
41294;DHT22;27037;52.010;4.446;2023-11-18T05:00:38;7.70;99.90
41294;DHT22;27037;52.010;4.446;2023-11-18T05:03:05;7.70;99.90
41294;DHT22;27037;52.010;4.446;2023-11-18T05:05:31;7.70;99.90
41294;DHT22;27037;52.010;4.446;2023-11-18T05:07:57;7.70;99.90
41294;DHT22;27037;52.010;4.446;2023-11-18T05:10:22;7.70;99.90
41294;DHT22;27037;52.010;4.446;2023-11-18T05:12:49;7.70;99.90
41294;DHT22;27037;52.010;4.446;2023-11-18T05:15:21;7.70;99.90
41294;DHT22;27037;52.010;4.446;2023-11-18T05:17:50;7.70;99.90
41294;DHT22;27037;52.010;4.446;2023-11-18T05:20:16;7.70;99.90
41294;DHT22;27037;52.010;4.446;2023-11-18T05:22:43;7.80;99.90
41294;DHT22;27037;52.010;4.446;2023-11-18T05:25:08;7.80;99.90
41294;DHT22;27037;52.010;4.446;2023-11-18T05:27:35;7.80;99.90
41294;DHT22;27037;52.010;4.446;2023-11-18T05:30:01;7.80;99.90
41294;DHT22;27037;52.010;4.446;2023-11-18T05:32:28;7.80;99.90
41294;DHT22;27037;52.010;4.446;2023-11-18T05:34:53;7.80;99.90
41294;DHT22;27037;52.010;4.446;2023-11-18T05:37:26;7.80;99.90
41294;DHT22;27037;52.010;4.446;2023-11-18T05:39:55;7.80;99.90
41294;DHT22;27037;52.010;4.446;2023-11-18T05:42:37;7.80;99.90
41294;DHT22;27037;52.010;4.446;2023-11-18T05:45:06;7.80;99.90
41294;DHT22;27037;52.010;4.446;2023-11-18T05:47:35;7.80;99.90
41294;DHT22;27037;52.010;4.446;2023-11-18T05:50:01;7.80;99.90
41294;DHT22;27037;52.010;4.446;2023-11-18T05:52:26;7.80;99.90
41294;DHT22;27037;52.010;4.446;2023-11-18T05:54:52;7.80;99.90
41294;DHT22;27037;52.010;4.446;2023-11-18T05:57:23;7.80;99.90
41294;DHT22;27037;52.010;4.446;2023-11-18T05:59:49;7.80;99.90
41294;DHT22;27037;52.010;4.446;2023-11-18T06:02:14;7.80;99.90
41294;DHT22;27037;52.010;4.446;2023-11-18T06:04:44;7.80;99.90
41294;DHT22;27037;52.010;4.446;2023-11-18T06:07:10;7.80;99.90
41294;DHT22;27037;52.010;4.446;2023-11-18T06:09:39;7.80;99.90
41294;DHT22;27037;52.010;4.446;2023-11-18T06:12:08;7.80;99.90
41294;DHT22;27037;52.010;4.446;2023-11-18T06:14:38;7.80;99.90
41294;DHT22;27037;52.010;4.446;2023-11-18T06:17:04;7.80;99.90
41294;DHT22;27037;52.010;4.446;2023-11-18T06:19:29;7.80;99.90
41294;DHT22;27037;52.010;4.446;2023-11-18T06:21:55;7.80;99.90
41294;DHT22;27037;52.010;4.446;2023-11-18T06:24:21;7.80;99.90
41294;DHT22;27037;52.010;4.446;2023-11-18T06:26:47;7.80;99.90
41294;DHT22;27037;52.010;4.446;2023-11-18T06:29:14;7.80;99.90
41294;DHT22;27037;52.010;4.446;2023-11-18T06:31:40;7.80;99.90
41294;DHT22;27037;52.010;4.446;2023-11-18T06:34:06;7.80;99.90
41294;DHT22;27037;52.010;4.446;2023-11-18T06:36:32;7.80;99.90
41294;DHT22;27037;52.010;4.446;2023-11-18T06:38:58;7.80;99.90
41294;DHT22;27037;52.010;4.446;2023-11-18T06:41:24;7.80;99.90
41294;DHT22;27037;52.010;4.446;2023-11-18T06:43:51;7.80;99.90
41294;DHT22;27037;52.010;4.446;2023-11-18T06:46:21;7.80;99.90
41294;DHT22;27037;52.010;4.446;2023-11-18T06:48:51;7.80;99.90
41294;DHT22;27037;52.010;4.446;2023-11-18T06:51:20;7.90;99.90
41294;DHT22;27037;52.010;4.446;2023-11-18T06:53:48;7.80;99.90
41294;DHT22;27037;52.010;4.446;2023-11-18T06:56:14;7.90;99.90
41294;DHT22;27037;52.010;4.446;2023-11-18T06:58:41;7.80;99.90
41294;DHT22;27037;52.010;4.446;2023-11-18T07:01:08;7.80;99.90
41294;DHT22;27037;52.010;4.446;2023-11-18T07:03:35;7.80;99.90
41294;DHT22;27037;52.010;4.446;2023-11-18T07:06:02;7.80;99.90
41294;DHT22;27037;52.010;4.446;2023-11-18T07:08:28;7.80;99.90
41294;DHT22;27037;52.010;4.446;2023-11-18T07:10:53;7.80;99.90
41294;DHT22;27037;52.010;4.446;2023-11-18T07:13:19;7.90;99.90
41294;DHT22;27037;52.010;4.446;2023-11-18T07:15:49;7.80;99.90
41294;DHT22;27037;52.010;4.446;2023-11-18T07:18:14;7.80;99.90
41294;DHT22;27037;52.010;4.446;2023-11-18T07:20:41;7.80;99.90
41294;DHT22;27037;52.010;4.446;2023-11-18T07:23:07;7.80;99.90
41294;DHT22;27037;52.010;4.446;2023-11-18T07:25:34;7.90;99.90
41294;DHT22;27037;52.010;4.446;2023-11-18T07:27:59;7.90;99.90
41294;DHT22;27037;52.010;4.446;2023-11-18T07:30:26;7.90;99.90
41294;DHT22;27037;52.010;4.446;2023-11-18T07:32:51;7.90;99.90
41294;DHT22;27037;52.010;4.446;2023-11-18T07:35:17;7.90;99.90
41294;DHT22;27037;52.010;4.446;2023-11-18T07:37:43;7.90;99.90
41294;DHT22;27037;52.010;4.446;2023-11-18T07:40:09;7.90;99.90
41294;DHT22;27037;52.010;4.446;2023-11-18T07:42:37;7.90;99.90
41294;DHT22;27037;52.010;4.446;2023-11-18T07:45:04;7.90;99.90
41294;DHT22;27037;52.010;4.446;2023-11-18T07:47:30;7.90;99.90
41294;DHT22;27037;52.010;4.446;2023-11-18T07:49:59;7.90;99.90
41294;DHT22;27037;52.010;4.446;2023-11-18T07:52:26;8.00;99.90
41294;DHT22;27037;52.010;4.446;2023-11-18T07:54:53;8.00;99.90
41294;DHT22;27037;52.010;4.446;2023-11-18T07:57:19;8.00;99.90
41294;DHT22;27037;52.010;4.446;2023-11-18T07:59:45;8.00;99.90
41294;DHT22;27037;52.010;4.446;2023-11-18T08:02:10;8.00;99.90
41294;DHT22;27037;52.010;4.446;2023-11-18T08:04:36;8.00;99.90
41294;DHT22;27037;52.010;4.446;2023-11-18T08:07:02;8.00;99.90
41294;DHT22;27037;52.010;4.446;2023-11-18T08:09:30;8.00;99.90
41294;DHT22;27037;52.010;4.446;2023-11-18T08:11:57;8.00;99.90
41294;DHT22;27037;52.010;4.446;2023-11-18T08:14:24;8.00;99.90
41294;DHT22;27037;52.010;4.446;2023-11-18T08:16:49;8.00;99.90
41294;DHT22;27037;52.010;4.446;2023-11-18T08:19:16;8.00;99.90
41294;DHT22;27037;52.010;4.446;2023-11-18T08:21:42;8.10;99.90
41294;DHT22;27037;52.010;4.446;2023-11-18T08:24:08;8.10;99.90
41294;DHT22;27037;52.010;4.446;2023-11-18T08:26:37;8.10;99.90
41294;DHT22;27037;52.010;4.446;2023-11-18T08:29:02;8.10;99.90
41294;DHT22;27037;52.010;4.446;2023-11-18T08:31:28;8.10;99.90
41294;DHT22;27037;52.010;4.446;2023-11-18T08:33:53;8.10;99.90
41294;DHT22;27037;52.010;4.446;2023-11-18T08:36:20;8.10;99.90
41294;DHT22;27037;52.010;4.446;2023-11-18T08:38:48;8.10;99.90
41294;DHT22;27037;52.010;4.446;2023-11-18T08:41:14;8.10;99.90
41294;DHT22;27037;52.010;4.446;2023-11-18T08:43:40;8.10;99.90
41294;DHT22;27037;52.010;4.446;2023-11-18T08:46:15;8.10;99.90
41294;DHT22;27037;52.010;4.446;2023-11-18T08:48:40;8.10;99.90
41294;DHT22;27037;52.010;4.446;2023-11-18T08:51:07;8.10;99.90
41294;DHT22;27037;52.010;4.446;2023-11-18T08:53:34;8.10;99.90
41294;DHT22;27037;52.010;4.446;2023-11-18T08:56:10;8.10;99.90
41294;DHT22;27037;52.010;4.446;2023-11-18T08:58:45;8.00;99.90
41294;DHT22;27037;52.010;4.446;2023-11-18T09:01:11;8.00;99.90
41294;DHT22;27037;52.010;4.446;2023-11-18T09:03:41;8.00;99.90
41294;DHT22;27037;52.010;4.446;2023-11-18T09:06:14;8.00;99.90
41294;DHT22;27037;52.010;4.446;2023-11-18T09:08:46;8.00;99.90
41294;DHT22;27037;52.010;4.446;2023-11-18T09:11:18;8.00;99.90
41294;DHT22;27037;52.010;4.446;2023-11-18T09:13:46;8.00;99.90
41294;DHT22;27037;52.010;4.446;2023-11-18T09:16:19;8.00;99.90
41294;DHT22;27037;52.010;4.446;2023-11-18T09:18:46;8.00;99.90
41294;DHT22;27037;52.010;4.446;2023-11-18T09:21:12;8.10;99.90
41294;DHT22;27037;52.010;4.446;2023-11-18T09:23:41;8.10;99.90
41294;DHT22;27037;52.010;4.446;2023-11-18T09:26:07;8.10;99.90
41294;DHT22;27037;52.010;4.446;2023-11-18T09:28:34;8.10;99.90
41294;DHT22;27037;52.010;4.446;2023-11-18T09:31:06;8.10;99.90
41294;DHT22;27037;52.010;4.446;2023-11-18T09:33:37;8.20;99.90
41294;DHT22;27037;52.010;4.446;2023-11-18T09:36:08;8.10;99.90
41294;DHT22;27037;52.010;4.446;2023-11-18T09:38:38;8.20;99.90
41294;DHT22;27037;52.010;4.446;2023-11-18T09:41:09;8.20;99.90
41294;DHT22;27037;52.010;4.446;2023-11-18T09:43:42;8.20;99.90
41294;DHT22;27037;52.010;4.446;2023-11-18T09:46:11;8.20;99.90
41294;DHT22;27037;52.010;4.446;2023-11-18T09:51:19;8.20;99.90
41294;DHT22;27037;52.010;4.446;2023-11-18T09:53:52;8.30;99.90
41294;DHT22;27037;52.010;4.446;2023-11-18T09:56:30;8.30;99.90
41294;DHT22;27037;52.010;4.446;2023-11-18T10:01:52;8.40;99.90
41294;DHT22;27037;52.010;4.446;2023-11-18T10:04:25;8.40;99.90
41294;DHT22;27037;52.010;4.446;2023-11-18T10:06:53;8.40;99.90
41294;DHT22;27037;52.010;4.446;2023-11-18T10:09:20;8.40;99.90
41294;DHT22;27037;52.010;4.446;2023-11-18T10:11:54;8.40;99.90
41294;DHT22;27037;52.010;4.446;2023-11-18T10:14:51;8.40;99.90
41294;DHT22;27037;52.010;4.446;2023-11-18T10:17:20;8.40;99.90
41294;DHT22;27037;52.010;4.446;2023-11-18T10:22:28;8.50;99.90
41294;DHT22;27037;52.010;4.446;2023-11-18T10:24:55;8.50;99.90
41294;DHT22;27037;52.010;4.446;2023-11-18T10:27:25;8.50;99.90
41294;DHT22;27037;52.010;4.446;2023-11-18T10:29:55;8.50;99.90
41294;DHT22;27037;52.010;4.446;2023-11-18T10:32:21;8.60;99.90
41294;DHT22;27037;52.010;4.446;2023-11-18T10:34:48;8.60;99.90
41294;DHT22;27037;52.010;4.446;2023-11-18T10:37:17;8.60;99.90
41294;DHT22;27037;52.010;4.446;2023-11-18T10:39:47;8.60;99.90
41294;DHT22;27037;52.010;4.446;2023-11-18T10:42:17;8.60;99.90
41294;DHT22;27037;52.010;4.446;2023-11-18T10:45:03;8.60;99.90
41294;DHT22;27037;52.010;4.446;2023-11-18T10:47:42;8.60;99.90
41294;DHT22;27037;52.010;4.446;2023-11-18T10:50:08;8.60;99.90
41294;DHT22;27037;52.010;4.446;2023-11-18T10:52:38;8.50;99.90
41294;DHT22;27037;52.010;4.446;2023-11-18T10:55:06;8.60;99.90
41294;DHT22;27037;52.010;4.446;2023-11-18T10:57:38;8.60;99.90
41294;DHT22;27037;52.010;4.446;2023-11-18T11:00:07;8.60;99.90
41294;DHT22;27037;52.010;4.446;2023-11-18T11:02:40;8.60;99.90
41294;DHT22;27037;52.010;4.446;2023-11-18T11:05:10;8.60;99.90
41294;DHT22;27037;52.010;4.446;2023-11-18T11:07:42;8.60;99.90
41294;DHT22;27037;52.010;4.446;2023-11-18T11:10:08;8.60;99.90
41294;DHT22;27037;52.010;4.446;2023-11-18T11:12:57;8.60;99.90
41294;DHT22;27037;52.010;4.446;2023-11-18T11:15:30;8.60;99.90
41294;DHT22;27037;52.010;4.446;2023-11-18T11:20:35;8.60;99.90
41294;DHT22;27037;52.010;4.446;2023-11-18T11:29:25;8.70;99.90
41294;DHT22;27037;52.010;4.446;2023-11-18T11:34:29;8.70;99.90
41294;DHT22;27037;52.010;4.446;2023-11-18T11:36:56;8.70;99.90
41294;DHT22;27037;52.010;4.446;2023-11-18T11:39:24;8.80;99.90
41294;DHT22;27037;52.010;4.446;2023-11-18T11:41:56;8.70;99.90
41294;DHT22;27037;52.010;4.446;2023-11-18T11:44:25;8.80;99.90
41294;DHT22;27037;52.010;4.446;2023-11-18T11:46:59;8.80;99.90
41294;DHT22;27037;52.010;4.446;2023-11-18T11:49:36;8.80;99.90
41294;DHT22;27037;52.010;4.446;2023-11-18T11:52:10;8.80;99.90
41294;DHT22;27037;52.010;4.446;2023-11-18T11:54:48;8.80;99.90
41294;DHT22;27037;52.010;4.446;2023-11-18T11:57:17;8.80;99.90
41294;DHT22;27037;52.010;4.446;2023-11-18T12:02:25;8.90;99.90
41294;DHT22;27037;52.010;4.446;2023-11-18T12:04:55;8.90;99.90
41294;DHT22;27037;52.010;4.446;2023-11-18T12:07:25;8.90;99.90
41294;DHT22;27037;52.010;4.446;2023-11-18T12:09:56;8.90;99.90
41294;DHT22;27037;52.010;4.446;2023-11-18T12:12:23;8.90;99.90
41294;DHT22;27037;52.010;4.446;2023-11-18T12:14:58;8.90;99.90
41294;DHT22;27037;52.010;4.446;2023-11-18T12:20:40;9.00;99.90
41294;DHT22;27037;52.010;4.446;2023-11-18T12:23:08;9.00;99.90
41294;DHT22;27037;52.010;4.446;2023-11-18T12:25:40;8.90;99.90
41294;DHT22;27037;52.010;4.446;2023-11-18T12:28:30;8.90;99.90
41294;DHT22;27037;52.010;4.446;2023-11-18T12:31:00;8.90;99.90
41294;DHT22;27037;52.010;4.446;2023-11-18T12:41:42;9.00;99.90
41294;DHT22;27037;52.010;4.446;2023-11-18T12:46:52;9.00;99.90
41294;DHT22;27037;52.010;4.446;2023-11-18T12:49:22;9.00;99.90
41294;DHT22;27037;52.010;4.446;2023-11-18T12:51:55;9.00;99.90
41294;DHT22;27037;52.010;4.446;2023-11-18T12:54:28;9.00;99.90
41294;DHT22;27037;52.010;4.446;2023-11-18T12:56:56;9.00;99.90
41294;DHT22;27037;52.010;4.446;2023-11-18T12:59:21;8.90;99.90
41294;DHT22;27037;52.010;4.446;2023-11-18T13:01:48;8.90;99.90
41294;DHT22;27037;52.010;4.446;2023-11-18T13:04:19;8.90;99.90
41294;DHT22;27037;52.010;4.446;2023-11-18T13:06:49;8.90;99.90
41294;DHT22;27037;52.010;4.446;2023-11-18T13:09:17;9.00;99.90
41294;DHT22;27037;52.010;4.446;2023-11-18T13:11:59;9.00;99.90
41294;DHT22;27037;52.010;4.446;2023-11-18T13:14:32;9.00;99.90
41294;DHT22;27037;52.010;4.446;2023-11-18T13:17:09;9.00;99.90
41294;DHT22;27037;52.010;4.446;2023-11-18T13:19:37;9.00;99.90
41294;DHT22;27037;52.010;4.446;2023-11-18T13:22:04;9.00;99.90
41294;DHT22;27037;52.010;4.446;2023-11-18T13:24:36;9.00;99.90
41294;DHT22;27037;52.010;4.446;2023-11-18T13:27:13;9.00;99.90
41294;DHT22;27037;52.010;4.446;2023-11-18T13:29:44;9.00;99.90
41294;DHT22;27037;52.010;4.446;2023-11-18T13:32:11;9.00;99.90
41294;DHT22;27037;52.010;4.446;2023-11-18T13:34:38;9.00;99.90
41294;DHT22;27037;52.010;4.446;2023-11-18T13:37:08;9.10;99.90
41294;DHT22;27037;52.010;4.446;2023-11-18T13:39:36;9.10;99.90
41294;DHT22;27037;52.010;4.446;2023-11-18T13:42:26;9.00;99.90
41294;DHT22;27037;52.010;4.446;2023-11-18T13:44:53;9.10;99.90
41294;DHT22;27037;52.010;4.446;2023-11-18T13:47:26;9.10;99.90
41294;DHT22;27037;52.010;4.446;2023-11-18T13:49:57;9.10;99.90
41294;DHT22;27037;52.010;4.446;2023-11-18T13:52:23;9.10;99.90
41294;DHT22;27037;52.010;4.446;2023-11-18T13:54:51;9.10;99.90
41294;DHT22;27037;52.010;4.446;2023-11-18T13:57:21;9.10;99.90
41294;DHT22;27037;52.010;4.446;2023-11-18T13:59:49;9.10;99.90
41294;DHT22;27037;52.010;4.446;2023-11-18T14:02:15;9.10;99.90
41294;DHT22;27037;52.010;4.446;2023-11-18T14:04:42;9.10;99.90
41294;DHT22;27037;52.010;4.446;2023-11-18T14:07:14;9.10;99.90
41294;DHT22;27037;52.010;4.446;2023-11-18T14:09:45;9.10;99.90
41294;DHT22;27037;52.010;4.446;2023-11-18T14:12:12;9.10;99.90
41294;DHT22;27037;52.010;4.446;2023-11-18T14:14:38;9.20;99.90
41294;DHT22;27037;52.010;4.446;2023-11-18T14:17:06;9.20;99.90
41294;DHT22;27037;52.010;4.446;2023-11-18T14:19:35;9.20;99.90
41294;DHT22;27037;52.010;4.446;2023-11-18T14:22:01;9.20;99.90
41294;DHT22;27037;52.010;4.446;2023-11-18T14:24:34;9.20;99.90
41294;DHT22;27037;52.010;4.446;2023-11-18T14:27:00;9.20;99.90
41294;DHT22;27037;52.010;4.446;2023-11-18T14:29:25;9.20;99.90
41294;DHT22;27037;52.010;4.446;2023-11-18T14:31:53;9.20;99.90
41294;DHT22;27037;52.010;4.446;2023-11-18T14:34:19;9.20;99.90
41294;DHT22;27037;52.010;4.446;2023-11-18T14:36:45;9.20;99.90
41294;DHT22;27037;52.010;4.446;2023-11-18T14:39:10;9.20;99.90
41294;DHT22;27037;52.010;4.446;2023-11-18T14:41:39;9.30;99.90
41294;DHT22;27037;52.010;4.446;2023-11-18T14:44:04;9.30;99.90
41294;DHT22;27037;52.010;4.446;2023-11-18T14:46:33;9.30;99.90
41294;DHT22;27037;52.010;4.446;2023-11-18T14:48:59;9.30;99.90
41294;DHT22;27037;52.010;4.446;2023-11-18T14:51:25;9.30;99.90
41294;DHT22;27037;52.010;4.446;2023-11-18T14:53:51;9.40;99.90
41294;DHT22;27037;52.010;4.446;2023-11-18T14:56:16;9.40;99.90
41294;DHT22;27037;52.010;4.446;2023-11-18T14:58:43;9.30;99.90
41294;DHT22;27037;52.010;4.446;2023-11-18T15:01:10;9.40;99.90
41294;DHT22;27037;52.010;4.446;2023-11-18T15:03:36;9.40;99.90
41294;DHT22;27037;52.010;4.446;2023-11-18T15:06:02;9.40;99.90
41294;DHT22;27037;52.010;4.446;2023-11-18T15:08:28;9.40;99.90
41294;DHT22;27037;52.010;4.446;2023-11-18T15:10:55;9.40;99.90
41294;DHT22;27037;52.010;4.446;2023-11-18T15:13:24;9.50;99.90
41294;DHT22;27037;52.010;4.446;2023-11-18T15:15:49;9.50;99.90
41294;DHT22;27037;52.010;4.446;2023-11-18T15:18:15;9.60;99.90
41294;DHT22;27037;52.010;4.446;2023-11-18T15:20:47;9.60;99.90
41294;DHT22;27037;52.010;4.446;2023-11-18T15:23:14;9.60;99.90
41294;DHT22;27037;52.010;4.446;2023-11-18T15:25:42;9.60;99.90
41294;DHT22;27037;52.010;4.446;2023-11-18T15:28:07;9.70;99.90
41294;DHT22;27037;52.010;4.446;2023-11-18T15:30:36;9.70;99.90
41294;DHT22;27037;52.010;4.446;2023-11-18T15:33:02;9.70;99.90
41294;DHT22;27037;52.010;4.446;2023-11-18T15:35:28;9.70;99.90
41294;DHT22;27037;52.010;4.446;2023-11-18T15:37:54;9.70;99.90
41294;DHT22;27037;52.010;4.446;2023-11-18T15:40:20;9.70;99.90
41294;DHT22;27037;52.010;4.446;2023-11-18T15:42:47;9.80;99.90
41294;DHT22;27037;52.010;4.446;2023-11-18T15:45:21;9.80;99.90
41294;DHT22;27037;52.010;4.446;2023-11-18T15:47:48;9.80;99.90
41294;DHT22;27037;52.010;4.446;2023-11-18T15:50:15;9.80;99.90
41294;DHT22;27037;52.010;4.446;2023-11-18T15:52:45;9.80;99.90
41294;DHT22;27037;52.010;4.446;2023-11-18T15:55:11;9.90;99.90
41294;DHT22;27037;52.010;4.446;2023-11-18T15:57:43;9.90;99.90
41294;DHT22;27037;52.010;4.446;2023-11-18T16:00:10;9.90;99.90
41294;DHT22;27037;52.010;4.446;2023-11-18T16:02:43;9.90;99.90
41294;DHT22;27037;52.010;4.446;2023-11-18T16:05:11;9.90;99.90
41294;DHT22;27037;52.010;4.446;2023-11-18T16:08:14;10.00;99.90
41294;DHT22;27037;52.010;4.446;2023-11-18T16:10:32;10.00;99.90
41294;DHT22;27037;52.010;4.446;2023-11-18T16:12:59;10.00;99.90
41294;DHT22;27037;52.010;4.446;2023-11-18T16:15:26;10.10;99.90
41294;DHT22;27037;52.010;4.446;2023-11-18T16:17:53;10.10;99.90
41294;DHT22;27037;52.010;4.446;2023-11-18T16:20:21;10.10;99.90
41294;DHT22;27037;52.010;4.446;2023-11-18T16:22:48;10.10;99.90
41294;DHT22;27037;52.010;4.446;2023-11-18T16:25:19;10.10;99.90
41294;DHT22;27037;52.010;4.446;2023-11-18T16:27:49;10.20;99.90